Nearby METAR Reports

 

KSYN - Stanton, Minnesota, USA
Distance from station: NW 20mi, 33km
Updated: Mon, 22-Apr-2019 12:59am CDT
Light rain, Mostly cloudy
Light rain, Mostly cloudy
 Wind from NE
Wind: NE 14 mph , 22 km/h
Temperature: 50°F , 10°C
Wind Chill: 45°F , 7°C
Dew Point: 43°F , 6°C
Humidity: 76%
Barometer: 29.88 inHg , 1011.9 hPa
Summary: Light rain
Clouds: Mostly cloudy
Visibility: 10 miles , 16 km
Cloud details: Mostly cloudy 9000 ft
Mostly cloudy 11000 ft
2019/04/22 05:59 KSYN 220559Z AUTO 04012KT 10SM -RA BKN090 BKN110 10/06 A2988 RMK AO2 LTG DSNT NW
KTOB - Dodge Center, Minnesota, USA
Distance from station: SSW 21mi, 34km
Updated: Mon, 22-Apr-2019 1:35am CDT
Clear
Clear
 Wind from NNE
Wind: NNE 12 mph , 19 km/h
Temperature: 54°F , 12°C
Dew Point: 45°F , 7°C
Humidity: 72%
Barometer: 29.86 inHg , 1011.2 hPa
Clouds: Clear
Visibility: 10 miles , 16 km
2019/04/22 06:35 KTOB 220635Z AUTO 02010KT 10SM CLR 12/07 A2986 RMK AO2
K9MN - St Mary Hospital, Minnesota, USA
Distance from station: SSE 22mi, 35km
Updated: Mon, 22-Apr-2019 1:36am CDT
Clear
Clear
 Wind from SSE
Wind: SSE 7 mph , 11 km/h
Temperature: 66°F , 19°C
Dew Point: 46°F , 8°C
Humidity: 49%
Barometer: 29.86 inHg , 1011.2 hPa
Clouds: Clear
Visibility: 10 miles , 16 km
2019/04/22 06:36 K9MN 220636Z AUTO 16006KT 10SM CLR 19/08 A2986 RMK AO1 T01860080
 
KRGK - Red Wing, Minnesota, USA
Distance from station: NNE 22mi, 35km
Updated: Mon, 22-Apr-2019 1:36am CDT
Partly cloudy
Partly cloudy
 Wind from ENE
Wind: ENE 8 mph , 13 km/h
Temperature: 54°F , 12°C
Dew Point: 36°F , 2°C
Humidity: 51%
Barometer: 29.89 inHg , 1012.2 hPa
Clouds: Partly cloudy
Visibility: 10 miles , 16 km
Cloud details: Partly cloudy 7000 ft
Partly cloudy 9000 ft
2019/04/22 06:36 KRGK 220636Z AUTO 07007KT 10SM SCT070 SCT090 12/02 A2989 RMK AO2
KRST - Rochester, Minnesota, USA
Distance from station: SSE 29mi, 47km
Updated: Mon, 22-Apr-2019 12:54am CDT
Clear
Clear
 Wind from S
Wind: S 13 mph , 20 km/h
Temperature: 63°F , 17°C
Dew Point: 46°F , 8°C
Humidity: 56%
Barometer: 29.86 inHg , 1011.2 hPa
Clouds: Clear
Visibility: 10 miles , 16 km
2019/04/22 05:54 KRST 220554Z AUTO 17011KT 10SM CLR 17/08 A2986 RMK AO2 SLP106 T01670078 10244 20161 402830111 52002 $
KOWA - Owatonna, Minnesota, USA
Distance from station: WSW 31mi, 50km
Updated: Mon, 22-Apr-2019 1:12am CDT
Clear
Clear
 Wind from NE
Wind: NE 8 mph , 13 km/h
Temperature: 52°F , 11°C
Dew Point: 45°F , 7°C
Humidity: 77%
Barometer: 29.86 inHg , 1011.2 hPa
Clouds: Clear
Visibility: 10 miles , 16 km
2019/04/22 06:12 KOWA 220612Z AUTO 05007KT 10SM CLR 11/07 A2986 RMK AO2 LTG DSNT W
 
KFBL - Faribault Muni, Minnesota, USA
Distance from station: W 32mi, 51km
Updated: Thu, 20-Sep-2018 6:41pm CDT
NOT Current

 Wind from SSE
Wind: SSE 18 mph , 30 km/h, Gust: 45 mph , 72 km/h
Visibility: 4 miles , 6 km
2018/09/20 23:41 KFBL 202341Z AUTO 15016G39KT 122V182 4SM +VCTSRA SCT010 BKN070 21/21 A2951 RMK AO2 P0008 LTG DSNT ALQDS
KSGS - South St Paul, Minnesota, USA
Distance from station: NNW 43mi, 69km
Updated: Mon, 22-Apr-2019 1:35am CDT
Partly cloudy
Partly cloudy
 Wind from NE
Wind: NE 7 mph , 11 km/h
Temperature: 50°F , 10°C
Wind Chill: 47°F , 8°C
Dew Point: 39°F , 4°C
Humidity: 67%
Barometer: 29.92 inHg , 1013.2 hPa
Clouds: Partly cloudy
Visibility: 10 miles , 16 km
Cloud details: Partly cloudy 12000 ft
2019/04/22 06:35 KSGS 220635Z AUTO 04006KT 10SM SCT120 10/04 A2992 RMK AO2 T00980042
KAUM - Austin Muni, Minnesota, USA
Distance from station: SSW 46mi, 73km
Updated: Mon, 22-Apr-2019 1:36am CDT

 Wind from SSE
Wind: SSE 7 mph , 11 km/h
Temperature: 64°F , 18°C
Dew Point: 43°F , 6°C
Humidity: 46%
Barometer: 29.83 inHg , 1010.2 hPa
Visibility: 10 miles , 16 km
2019/04/22 06:36 KAUM 220636Z AUTO 16006KT 10SM 18/06 A2983 RMK AO2
 
KACQ - Waseca, Minnesota, USA
Distance from station: WSW 46mi, 75km
Updated: Mon, 22-Apr-2019 1:36am CDT
Clear
Clear
 Wind from NE
Wind: NE 15 mph , 24 km/h
Temperature: 52°F , 11°C
Dew Point: 43°F , 6°C
Humidity: 72%
Barometer: 29.85 inHg , 1010.8 hPa
Clouds: Clear
Visibility: 10 miles , 16 km
2019/04/22 06:36 KACQ 220636Z AUTO 04013KT 10SM CLR 11/06 A2985 RMK AO2
KSTP - St. Paul, Minnesota, USA
Distance from station: NNW 47mi, 76km
Updated: Mon, 22-Apr-2019 12:53am CDT
Few Clouds
Few Clouds
 Wind from NE
Wind: NE 6 mph , 9 km/h, Gust: 18 mph , 30 km/h
Temperature: 48°F , 9°C
Wind Chill: 45°F , 7°C
Dew Point: 39°F , 4°C
Humidity: 71%
Barometer: 29.93 inHg , 1013.5 hPa
Clouds: Few Clouds
Visibility: 10 miles , 16 km
Cloud details: Few Clouds 12000 ft
2019/04/22 05:53 KSTP 220553Z AUTO 04005G16KT 10SM FEW120 09/04 A2993 RMK AO2 SLP134 60000 T00940044 10200 20094 402500094 50002
KMSP - Minneapolis, Minnesota, USA
Distance from station: NW 49mi, 78km
Updated: Mon, 22-Apr-2019 12:53am CDT
Mostly cloudy
Mostly cloudy
 Wind from NE
Wind: NE 13 mph , 20 km/h, Gust: 23 mph , 37 km/h
Temperature: 48°F , 9°C
Wind Chill: 43°F , 6°C
Dew Point: 39°F , 4°C
Humidity: 71%
Barometer: 29.91 inHg , 1012.9 hPa
Clouds: Mostly cloudy
Visibility: 10 miles , 16 km
Cloud details: Few Clouds 12000 ft
Mostly cloudy 13000 ft
2019/04/22 05:53 KMSP 220553Z 05011G20KT 10SM FEW120 BKN130 09/04 A2991 RMK AO2 LTG DSNT W SLP128 60000 T00940044 10200 20094 402500094 58000